sensor_id;sensor_type;location;lat;lon;timestamp;P1;durP1;ratioP1;P2;durP2;ratioP2
51485;SDS011;37565;51.352;6.412;2022-07-18T00:02:04;30.75;;;20.58;;
51485;SDS011;37565;51.352;6.412;2022-07-18T00:04:32;28.35;;;20.40;;
51485;SDS011;37565;51.352;6.412;2022-07-18T00:07:01;28.73;;;20.40;;
51485;SDS011;37565;51.352;6.412;2022-07-18T00:09:29;31.10;;;20.15;;
51485;SDS011;37565;51.352;6.412;2022-07-18T00:12:01;29.67;;;19.27;;
51485;SDS011;37565;51.352;6.412;2022-07-18T00:14:29;24.85;;;18.30;;
51485;SDS011;37565;51.352;6.412;2022-07-18T00:16:57;24.55;;;18.13;;
51485;SDS011;37565;51.352;6.412;2022-07-18T00:19:27;28.55;;;19.02;;
51485;SDS011;37565;51.352;6.412;2022-07-18T00:21:57;27.70;;;18.85;;
51485;SDS011;37565;51.352;6.412;2022-07-18T00:24:25;24.38;;;17.90;;
51485;SDS011;37565;51.352;6.412;2022-07-18T00:26:53;24.98;;;17.52;;
51485;SDS011;37565;51.352;6.412;2022-07-18T00:29:21;28.30;;;18.23;;
51485;SDS011;37565;51.352;6.412;2022-07-18T00:31:49;25.83;;;18.45;;
51485;SDS011;37565;51.352;6.412;2022-07-18T00:34:17;22.83;;;16.83;;
51485;SDS011;37565;51.352;6.412;2022-07-18T00:36:47;26.08;;;17.33;;
51485;SDS011;37565;51.352;6.412;2022-07-18T00:39:15;22.25;;;16.17;;
51485;SDS011;37565;51.352;6.412;2022-07-18T00:41:44;21.52;;;16.58;;
51485;SDS011;37565;51.352;6.412;2022-07-18T00:44:17;22.80;;;16.90;;
51485;SDS011;37565;51.352;6.412;2022-07-18T00:46:45;18.65;;;14.95;;
51485;SDS011;37565;51.352;6.412;2022-07-18T00:49:15;21.55;;;15.45;;
51485;SDS011;37565;51.352;6.412;2022-07-18T00:51:44;20.08;;;14.70;;
51485;SDS011;37565;51.352;6.412;2022-07-18T00:54:13;22.23;;;15.40;;
51485;SDS011;37565;51.352;6.412;2022-07-18T00:56:42;19.90;;;14.48;;
51485;SDS011;37565;51.352;6.412;2022-07-18T00:59:11;18.20;;;13.93;;
51485;SDS011;37565;51.352;6.412;2022-07-18T01:01:40;17.15;;;13.05;;
51485;SDS011;37565;51.352;6.412;2022-07-18T01:04:10;20.77;;;14.85;;
51485;SDS011;37565;51.352;6.412;2022-07-18T01:06:40;18.70;;;13.93;;
51485;SDS011;37565;51.352;6.412;2022-07-18T01:09:08;18.10;;;13.50;;
51485;SDS011;37565;51.352;6.412;2022-07-18T01:11:38;16.55;;;12.60;;
51485;SDS011;37565;51.352;6.412;2022-07-18T01:14:08;18.88;;;13.23;;
51485;SDS011;37565;51.352;6.412;2022-07-18T01:16:36;19.33;;;13.90;;
51485;SDS011;37565;51.352;6.412;2022-07-18T01:19:04;18.52;;;13.40;;
51485;SDS011;37565;51.352;6.412;2022-07-18T01:21:33;16.80;;;12.15;;
51485;SDS011;37565;51.352;6.412;2022-07-18T01:24:03;17.48;;;11.85;;
51485;SDS011;37565;51.352;6.412;2022-07-18T01:26:31;16.30;;;12.38;;
51485;SDS011;37565;51.352;6.412;2022-07-18T01:29:00;15.35;;;11.85;;
51485;SDS011;37565;51.352;6.412;2022-07-18T01:31:28;16.42;;;12.27;;
51485;SDS011;37565;51.352;6.412;2022-07-18T01:33:59;15.80;;;12.10;;
51485;SDS011;37565;51.352;6.412;2022-07-18T01:36:28;14.90;;;11.43;;
51485;SDS011;37565;51.352;6.412;2022-07-18T01:39:00;15.40;;;12.10;;
51485;SDS011;37565;51.352;6.412;2022-07-18T01:41:28;15.70;;;11.35;;
51485;SDS011;37565;51.352;6.412;2022-07-18T01:43:56;17.63;;;12.60;;
51485;SDS011;37565;51.352;6.412;2022-07-18T01:46:24;16.48;;;12.02;;
51485;SDS011;37565;51.352;6.412;2022-07-18T01:48:52;17.65;;;12.77;;
51485;SDS011;37565;51.352;6.412;2022-07-18T01:51:20;15.80;;;11.13;;
51485;SDS011;37565;51.352;6.412;2022-07-18T01:53:53;15.20;;;11.80;;
51485;SDS011;37565;51.352;6.412;2022-07-18T01:56:25;14.50;;;10.55;;
51485;SDS011;37565;51.352;6.412;2022-07-18T01:58:54;15.85;;;11.80;;
51485;SDS011;37565;51.352;6.412;2022-07-18T02:01:22;13.85;;;10.70;;
51485;SDS011;37565;51.352;6.412;2022-07-18T02:03:50;14.00;;;10.10;;
51485;SDS011;37565;51.352;6.412;2022-07-18T02:06:19;16.27;;;11.75;;
51485;SDS011;37565;51.352;6.412;2022-07-18T02:08:47;16.08;;;10.65;;
51485;SDS011;37565;51.352;6.412;2022-07-18T02:11:15;13.00;;;10.18;;
51485;SDS011;37565;51.352;6.412;2022-07-18T02:13:44;14.38;;;10.40;;
51485;SDS011;37565;51.352;6.412;2022-07-18T02:16:14;16.13;;;10.73;;
51485;SDS011;37565;51.352;6.412;2022-07-18T02:18:42;13.32;;;10.38;;
51485;SDS011;37565;51.352;6.412;2022-07-18T02:21:10;14.88;;;10.65;;
51485;SDS011;37565;51.352;6.412;2022-07-18T02:23:40;12.77;;;9.90;;
51485;SDS011;37565;51.352;6.412;2022-07-18T02:26:08;14.23;;;10.15;;
51485;SDS011;37565;51.352;6.412;2022-07-18T02:28:37;13.57;;;10.10;;
51485;SDS011;37565;51.352;6.412;2022-07-18T02:31:07;12.48;;;9.77;;
51485;SDS011;37565;51.352;6.412;2022-07-18T02:33:35;12.25;;;8.88;;
51485;SDS011;37565;51.352;6.412;2022-07-18T02:36:06;11.75;;;9.63;;
51485;SDS011;37565;51.352;6.412;2022-07-18T02:38:34;10.98;;;8.95;;
51485;SDS011;37565;51.352;6.412;2022-07-18T02:41:02;12.75;;;8.85;;
51485;SDS011;37565;51.352;6.412;2022-07-18T02:43:30;13.95;;;9.93;;
51485;SDS011;37565;51.352;6.412;2022-07-18T02:45:58;13.20;;;9.75;;
51485;SDS011;37565;51.352;6.412;2022-07-18T02:48:28;14.15;;;10.13;;
51485;SDS011;37565;51.352;6.412;2022-07-18T02:50:56;10.75;;;8.60;;
51485;SDS011;37565;51.352;6.412;2022-07-18T02:53:24;11.65;;;8.68;;
51485;SDS011;37565;51.352;6.412;2022-07-18T02:55:52;15.20;;;9.25;;
51485;SDS011;37565;51.352;6.412;2022-07-18T02:58:20;12.05;;;7.65;;
51485;SDS011;37565;51.352;6.412;2022-07-18T03:00:48;11.18;;;9.02;;
51485;SDS011;37565;51.352;6.412;2022-07-18T03:03:16;12.27;;;9.13;;
51485;SDS011;37565;51.352;6.412;2022-07-18T03:05:45;9.88;;;7.85;;
51485;SDS011;37565;51.352;6.412;2022-07-18T03:08:13;9.68;;;7.35;;
51485;SDS011;37565;51.352;6.412;2022-07-18T03:10:41;9.57;;;7.45;;
51485;SDS011;37565;51.352;6.412;2022-07-18T03:13:09;9.18;;;7.75;;
51485;SDS011;37565;51.352;6.412;2022-07-18T03:15:39;9.02;;;7.47;;
51485;SDS011;37565;51.352;6.412;2022-07-18T03:18:07;9.27;;;7.68;;
51485;SDS011;37565;51.352;6.412;2022-07-18T03:20:35;9.25;;;7.68;;
51485;SDS011;37565;51.352;6.412;2022-07-18T03:23:05;8.70;;;7.57;;
51485;SDS011;37565;51.352;6.412;2022-07-18T03:25:33;11.13;;;8.23;;
51485;SDS011;37565;51.352;6.412;2022-07-18T03:28:01;9.00;;;7.85;;
51485;SDS011;37565;51.352;6.412;2022-07-18T03:30:29;9.77;;;7.88;;
51485;SDS011;37565;51.352;6.412;2022-07-18T03:32:57;8.48;;;7.50;;
51485;SDS011;37565;51.352;6.412;2022-07-18T03:35:31;8.87;;;7.57;;
51485;SDS011;37565;51.352;6.412;2022-07-18T03:38:00;8.93;;;7.45;;
51485;SDS011;37565;51.352;6.412;2022-07-18T03:40:29;9.40;;;7.35;;
51485;SDS011;37565;51.352;6.412;2022-07-18T03:42:57;10.80;;;7.35;;
51485;SDS011;37565;51.352;6.412;2022-07-18T03:45:25;7.93;;;7.13;;
51485;SDS011;37565;51.352;6.412;2022-07-18T03:47:57;9.05;;;6.80;;
51485;SDS011;37565;51.352;6.412;2022-07-18T03:50:25;8.43;;;7.50;;
51485;SDS011;37565;51.352;6.412;2022-07-18T03:52:53;8.68;;;7.43;;
51485;SDS011;37565;51.352;6.412;2022-07-18T03:55:22;7.95;;;7.05;;
51485;SDS011;37565;51.352;6.412;2022-07-18T03:57:51;8.13;;;7.20;;
51485;SDS011;37565;51.352;6.412;2022-07-18T04:00:19;6.97;;;6.18;;
51485;SDS011;37565;51.352;6.412;2022-07-18T04:02:50;7.10;;;6.40;;
51485;SDS011;37565;51.352;6.412;2022-07-18T04:05:18;10.13;;;7.13;;
51485;SDS011;37565;51.352;6.412;2022-07-18T04:07:47;7.97;;;6.85;;
51485;SDS011;37565;51.352;6.412;2022-07-18T04:10:15;9.40;;;6.90;;
51485;SDS011;37565;51.352;6.412;2022-07-18T04:12:44;7.55;;;6.78;;
51485;SDS011;37565;51.352;6.412;2022-07-18T04:15:14;6.07;;;5.45;;
51485;SDS011;37565;51.352;6.412;2022-07-18T04:17:45;7.00;;;6.05;;
51485;SDS011;37565;51.352;6.412;2022-07-18T04:20:14;9.38;;;6.57;;
51485;SDS011;37565;51.352;6.412;2022-07-18T04:22:43;7.68;;;6.70;;
51485;SDS011;37565;51.352;6.412;2022-07-18T04:25:12;8.13;;;6.60;;
51485;SDS011;37565;51.352;6.412;2022-07-18T04:27:41;7.03;;;5.93;;
51485;SDS011;37565;51.352;6.412;2022-07-18T04:30:09;7.90;;;6.18;;
51485;SDS011;37565;51.352;6.412;2022-07-18T04:32:39;7.20;;;5.70;;
51485;SDS011;37565;51.352;6.412;2022-07-18T04:35:08;7.80;;;6.57;;
51485;SDS011;37565;51.352;6.412;2022-07-18T04:37:37;5.80;;;5.25;;
51485;SDS011;37565;51.352;6.412;2022-07-18T04:40:06;5.68;;;5.07;;
51485;SDS011;37565;51.352;6.412;2022-07-18T04:42:36;5.95;;;5.15;;
51485;SDS011;37565;51.352;6.412;2022-07-18T04:45:04;7.43;;;6.05;;
51485;SDS011;37565;51.352;6.412;2022-07-18T04:47:34;7.32;;;5.88;;
51485;SDS011;37565;51.352;6.412;2022-07-18T04:50:04;6.97;;;5.85;;
51485;SDS011;37565;51.352;6.412;2022-07-18T04:52:37;6.57;;;5.53;;
51485;SDS011;37565;51.352;6.412;2022-07-18T04:55:06;6.78;;;5.95;;
51485;SDS011;37565;51.352;6.412;2022-07-18T04:57:35;5.47;;;4.97;;
51485;SDS011;37565;51.352;6.412;2022-07-18T05:00:05;5.35;;;4.78;;
51485;SDS011;37565;51.352;6.412;2022-07-18T05:02:38;5.50;;;4.90;;
51485;SDS011;37565;51.352;6.412;2022-07-18T05:05:09;6.20;;;5.22;;
51485;SDS011;37565;51.352;6.412;2022-07-18T05:07:38;5.25;;;4.75;;
51485;SDS011;37565;51.352;6.412;2022-07-18T05:10:07;6.75;;;5.70;;
51485;SDS011;37565;51.352;6.412;2022-07-18T05:12:38;5.35;;;4.85;;
51485;SDS011;37565;51.352;6.412;2022-07-18T05:15:08;5.50;;;4.65;;
51485;SDS011;37565;51.352;6.412;2022-07-18T05:17:37;5.05;;;4.43;;
51485;SDS011;37565;51.352;6.412;2022-07-18T05:20:07;4.20;;;3.88;;
51485;SDS011;37565;51.352;6.412;2022-07-18T05:22:38;4.78;;;4.38;;
51485;SDS011;37565;51.352;6.412;2022-07-18T05:25:07;5.53;;;4.80;;
51485;SDS011;37565;51.352;6.412;2022-07-18T05:27:36;4.78;;;4.28;;
51485;SDS011;37565;51.352;6.412;2022-07-18T05:30:06;4.57;;;4.10;;
51485;SDS011;37565;51.352;6.412;2022-07-18T05:32:36;6.20;;;4.85;;
51485;SDS011;37565;51.352;6.412;2022-07-18T05:35:04;5.47;;;4.13;;
51485;SDS011;37565;51.352;6.412;2022-07-18T05:37:34;4.60;;;3.85;;
51485;SDS011;37565;51.352;6.412;2022-07-18T05:40:04;4.95;;;4.25;;
51485;SDS011;37565;51.352;6.412;2022-07-18T05:42:33;6.35;;;3.92;;
51485;SDS011;37565;51.352;6.412;2022-07-18T05:45:20;5.22;;;4.70;;
51485;SDS011;37565;51.352;6.412;2022-07-18T05:47:52;4.90;;;4.40;;
51485;SDS011;37565;51.352;6.412;2022-07-18T05:50:20;5.35;;;4.50;;
51485;SDS011;37565;51.352;6.412;2022-07-18T05:52:50;5.22;;;4.72;;
51485;SDS011;37565;51.352;6.412;2022-07-18T05:55:18;4.43;;;4.03;;
51485;SDS011;37565;51.352;6.412;2022-07-18T05:57:46;4.53;;;4.00;;
51485;SDS011;37565;51.352;6.412;2022-07-18T06:00:16;5.15;;;4.00;;
51485;SDS011;37565;51.352;6.412;2022-07-18T06:02:46;4.88;;;4.38;;
51485;SDS011;37565;51.352;6.412;2022-07-18T06:05:15;4.07;;;3.67;;
51485;SDS011;37565;51.352;6.412;2022-07-18T06:07:51;4.35;;;3.95;;
51485;SDS011;37565;51.352;6.412;2022-07-18T06:10:20;4.78;;;4.07;;
51485;SDS011;37565;51.352;6.412;2022-07-18T06:12:48;3.90;;;3.55;;
51485;SDS011;37565;51.352;6.412;2022-07-18T06:15:17;4.95;;;3.88;;
51485;SDS011;37565;51.352;6.412;2022-07-18T06:17:45;4.85;;;4.20;;
51485;SDS011;37565;51.352;6.412;2022-07-18T06:20:13;4.63;;;3.97;;
51485;SDS011;37565;51.352;6.412;2022-07-18T06:22:41;9.88;;;3.97;;
51485;SDS011;37565;51.352;6.412;2022-07-18T06:25:11;3.80;;;3.42;;
51485;SDS011;37565;51.352;6.412;2022-07-18T06:27:39;4.38;;;3.85;;
51485;SDS011;37565;51.352;6.412;2022-07-18T06:30:07;4.28;;;3.83;;
51485;SDS011;37565;51.352;6.412;2022-07-18T06:32:36;4.30;;;3.75;;
51485;SDS011;37565;51.352;6.412;2022-07-18T06:35:05;3.50;;;3.20;;
51485;SDS011;37565;51.352;6.412;2022-07-18T06:37:34;6.13;;;1.85;;
51485;SDS011;37565;51.352;6.412;2022-07-18T06:40:02;8.60;;;2.08;;
51485;SDS011;37565;51.352;6.412;2022-07-18T06:42:33;2.22;;;1.60;;
51485;SDS011;37565;51.352;6.412;2022-07-18T06:45:01;3.53;;;1.58;;
51485;SDS011;37565;51.352;6.412;2022-07-18T06:47:36;2.35;;;1.20;;
51485;SDS011;37565;51.352;6.412;2022-07-18T06:50:05;2.67;;;1.20;;
51485;SDS011;37565;51.352;6.412;2022-07-18T06:52:33;5.80;;;1.20;;
51485;SDS011;37565;51.352;6.412;2022-07-18T06:55:01;4.07;;;1.20;;
51485;SDS011;37565;51.352;6.412;2022-07-18T06:57:30;3.30;;;1.13;;
51485;SDS011;37565;51.352;6.412;2022-07-18T07:00:00;2.03;;;1.10;;
51485;SDS011;37565;51.352;6.412;2022-07-18T07:02:28;6.00;;;1.45;;
51485;SDS011;37565;51.352;6.412;2022-07-18T07:04:56;5.80;;;1.08;;
51485;SDS011;37565;51.352;6.412;2022-07-18T07:07:24;4.45;;;1.10;;
51485;SDS011;37565;51.352;6.412;2022-07-18T07:09:52;2.63;;;1.00;;
51485;SDS011;37565;51.352;6.412;2022-07-18T07:12:20;3.03;;;1.58;;
51485;SDS011;37565;51.352;6.412;2022-07-18T07:14:48;2.30;;;1.10;;
51485;SDS011;37565;51.352;6.412;2022-07-18T07:17:17;2.28;;;1.00;;
51485;SDS011;37565;51.352;6.412;2022-07-18T07:19:45;3.55;;;1.17;;
51485;SDS011;37565;51.352;6.412;2022-07-18T07:22:13;3.28;;;1.50;;
51485;SDS011;37565;51.352;6.412;2022-07-18T07:24:41;2.80;;;1.08;;
51485;SDS011;37565;51.352;6.412;2022-07-18T07:27:09;4.13;;;1.60;;
51485;SDS011;37565;51.352;6.412;2022-07-18T07:29:37;7.35;;;1.70;;
51485;SDS011;37565;51.352;6.412;2022-07-18T07:32:05;1.85;;;1.50;;
51485;SDS011;37565;51.352;6.412;2022-07-18T07:34:37;6.90;;;1.58;;
51485;SDS011;37565;51.352;6.412;2022-07-18T07:37:05;5.68;;;1.02;;
51485;SDS011;37565;51.352;6.412;2022-07-18T07:39:33;2.28;;;0.95;;
51485;SDS011;37565;51.352;6.412;2022-07-18T07:42:01;3.97;;;1.35;;
51485;SDS011;37565;51.352;6.412;2022-07-18T07:44:30;3.70;;;1.30;;
51485;SDS011;37565;51.352;6.412;2022-07-18T07:46:58;5.40;;;1.27;;
51485;SDS011;37565;51.352;6.412;2022-07-18T07:49:27;4.07;;;1.30;;
51485;SDS011;37565;51.352;6.412;2022-07-18T07:51:56;3.22;;;1.25;;
51485;SDS011;37565;51.352;6.412;2022-07-18T07:54:24;2.92;;;1.20;;
51485;SDS011;37565;51.352;6.412;2022-07-18T07:56:52;4.40;;;1.25;;
51485;SDS011;37565;51.352;6.412;2022-07-18T07:59:20;5.50;;;1.40;;
51485;SDS011;37565;51.352;6.412;2022-07-18T08:01:48;1.13;;;0.93;;
51485;SDS011;37565;51.352;6.412;2022-07-18T08:04:16;3.67;;;1.25;;
51485;SDS011;37565;51.352;6.412;2022-07-18T08:06:44;4.85;;;1.30;;
51485;SDS011;37565;51.352;6.412;2022-07-18T08:09:14;5.28;;;1.33;;
51485;SDS011;37565;51.352;6.412;2022-07-18T08:11:42;2.90;;;1.23;;
51485;SDS011;37565;51.352;6.412;2022-07-18T08:14:10;3.80;;;1.35;;
51485;SDS011;37565;51.352;6.412;2022-07-18T08:16:38;3.60;;;1.08;;
51485;SDS011;37565;51.352;6.412;2022-07-18T08:19:06;5.78;;;1.23;;
51485;SDS011;37565;51.352;6.412;2022-07-18T08:21:34;3.08;;;1.15;;
51485;SDS011;37565;51.352;6.412;2022-07-18T08:24:03;7.78;;;1.23;;
51485;SDS011;37565;51.352;6.412;2022-07-18T08:26:32;6.07;;;1.63;;
51485;SDS011;37565;51.352;6.412;2022-07-18T08:29:05;12.68;;;1.67;;
51485;SDS011;37565;51.352;6.412;2022-07-18T08:31:33;13.00;;;1.42;;
51485;SDS011;37565;51.352;6.412;2022-07-18T08:34:03;5.97;;;1.20;;
51485;SDS011;37565;51.352;6.412;2022-07-18T08:36:31;22.20;;;1.40;;
51485;SDS011;37565;51.352;6.412;2022-07-18T08:39:05;6.43;;;1.20;;
51485;SDS011;37565;51.352;6.412;2022-07-18T08:41:34;3.92;;;1.30;;
51485;SDS011;37565;51.352;6.412;2022-07-18T08:44:04;4.05;;;1.00;;
51485;SDS011;37565;51.352;6.412;2022-07-18T08:46:33;6.82;;;1.60;;
51485;SDS011;37565;51.352;6.412;2022-07-18T08:49:03;3.15;;;1.50;;
51485;SDS011;37565;51.352;6.412;2022-07-18T08:51:31;6.55;;;1.20;;
51485;SDS011;37565;51.352;6.412;2022-07-18T08:54:01;2.58;;;1.17;;
51485;SDS011;37565;51.352;6.412;2022-07-18T08:56:30;8.70;;;1.60;;
51485;SDS011;37565;51.352;6.412;2022-07-18T08:59:01;5.60;;;1.00;;
51485;SDS011;37565;51.352;6.412;2022-07-18T09:01:31;3.78;;;1.30;;
51485;SDS011;37565;51.352;6.412;2022-07-18T09:04:00;5.38;;;1.17;;
51485;SDS011;37565;51.352;6.412;2022-07-18T09:06:47;2.65;;;0.90;;
51485;SDS011;37565;51.352;6.412;2022-07-18T09:09:17;2.10;;;1.05;;
51485;SDS011;37565;51.352;6.412;2022-07-18T09:11:49;3.78;;;1.02;;
51485;SDS011;37565;51.352;6.412;2022-07-18T09:14:30;3.67;;;1.05;;
51485;SDS011;37565;51.352;6.412;2022-07-18T09:17:01;6.97;;;1.55;;
51485;SDS011;37565;51.352;6.412;2022-07-18T09:19:34;4.35;;;1.20;;
51485;SDS011;37565;51.352;6.412;2022-07-18T09:22:16;3.97;;;1.10;;
51485;SDS011;37565;51.352;6.412;2022-07-18T09:24:50;7.30;;;1.02;;
51485;SDS011;37565;51.352;6.412;2022-07-18T09:27:27;1.90;;;0.80;;
51485;SDS011;37565;51.352;6.412;2022-07-18T09:30:08;3.30;;;1.08;;
51485;SDS011;37565;51.352;6.412;2022-07-18T09:32:45;3.50;;;1.42;;
51485;SDS011;37565;51.352;6.412;2022-07-18T09:35:15;3.38;;;1.08;;
51485;SDS011;37565;51.352;6.412;2022-07-18T09:37:58;2.92;;;1.02;;
51485;SDS011;37565;51.352;6.412;2022-07-18T09:40:29;3.83;;;1.20;;
51485;SDS011;37565;51.352;6.412;2022-07-18T09:42:59;5.00;;;0.80;;
51485;SDS011;37565;51.352;6.412;2022-07-18T09:45:31;3.53;;;1.20;;
51485;SDS011;37565;51.352;6.412;2022-07-18T09:48:01;2.35;;;1.15;;
51485;SDS011;37565;51.352;6.412;2022-07-18T09:50:31;1.50;;;0.80;;
51485;SDS011;37565;51.352;6.412;2022-07-18T09:53:02;3.45;;;1.20;;
51485;SDS011;37565;51.352;6.412;2022-07-18T09:55:53;2.20;;;0.93;;
51485;SDS011;37565;51.352;6.412;2022-07-18T09:58:23;2.78;;;1.08;;
51485;SDS011;37565;51.352;6.412;2022-07-18T10:00:54;3.47;;;1.30;;
51485;SDS011;37565;51.352;6.412;2022-07-18T10:03:23;2.92;;;0.95;;
51485;SDS011;37565;51.352;6.412;2022-07-18T10:05:52;1.23;;;0.77;;
51485;SDS011;37565;51.352;6.412;2022-07-18T10:08:23;2.28;;;1.10;;
51485;SDS011;37565;51.352;6.412;2022-07-18T10:10:53;2.00;;;0.90;;
51485;SDS011;37565;51.352;6.412;2022-07-18T10:13:23;1.08;;;0.90;;
51485;SDS011;37565;51.352;6.412;2022-07-18T10:15:51;2.35;;;1.10;;
51485;SDS011;37565;51.352;6.412;2022-07-18T10:18:22;2.13;;;1.15;;
51485;SDS011;37565;51.352;6.412;2022-07-18T10:20:52;2.95;;;1.13;;
51485;SDS011;37565;51.352;6.412;2022-07-18T10:23:31;2.80;;;0.90;;
51485;SDS011;37565;51.352;6.412;2022-07-18T10:26:10;1.83;;;1.10;;
51485;SDS011;37565;51.352;6.412;2022-07-18T10:31:38;2.05;;;1.08;;
51485;SDS011;37565;51.352;6.412;2022-07-18T10:34:09;1.98;;;0.90;;
51485;SDS011;37565;51.352;6.412;2022-07-18T10:36:38;2.28;;;1.20;;
51485;SDS011;37565;51.352;6.412;2022-07-18T10:39:09;2.15;;;0.90;;
51485;SDS011;37565;51.352;6.412;2022-07-18T10:42:12;1.30;;;0.90;;
51485;SDS011;37565;51.352;6.412;2022-07-18T10:44:47;2.90;;;1.30;;
51485;SDS011;37565;51.352;6.412;2022-07-18T10:47:17;1.70;;;1.00;;
51485;SDS011;37565;51.352;6.412;2022-07-18T10:55:31;1.80;;;0.90;;
51485;SDS011;37565;51.352;6.412;2022-07-18T11:00:46;2.60;;;1.10;;
51485;SDS011;37565;51.352;6.412;2022-07-18T11:03:21;4.18;;;1.10;;
51485;SDS011;37565;51.352;6.412;2022-07-18T11:05:55;1.05;;;0.73;;
51485;SDS011;37565;51.352;6.412;2022-07-18T11:08:24;1.48;;;0.98;;
51485;SDS011;37565;51.352;6.412;2022-07-18T11:11:04;7.40;;;1.00;;
51485;SDS011;37565;51.352;6.412;2022-07-18T11:13:37;11.32;;;1.80;;
51485;SDS011;37565;51.352;6.412;2022-07-18T11:16:10;1.80;;;0.90;;
51485;SDS011;37565;51.352;6.412;2022-07-18T11:21:57;1.00;;;0.90;;
51485;SDS011;37565;51.352;6.412;2022-07-18T11:24:26;1.17;;;0.98;;
51485;SDS011;37565;51.352;6.412;2022-07-18T11:26:54;1.35;;;0.98;;
51485;SDS011;37565;51.352;6.412;2022-07-18T11:29:22;1.38;;;1.00;;
51485;SDS011;37565;51.352;6.412;2022-07-18T11:31:51;1.25;;;0.90;;
51485;SDS011;37565;51.352;6.412;2022-07-18T11:34:22;1.63;;;0.80;;
51485;SDS011;37565;51.352;6.412;2022-07-18T11:37:12;5.25;;;0.98;;
51485;SDS011;37565;51.352;6.412;2022-07-18T11:39:41;4.18;;;1.00;;
51485;SDS011;37565;51.352;6.412;2022-07-18T11:42:09;4.20;;;0.85;;
51485;SDS011;37565;51.352;6.412;2022-07-18T11:44:39;2.90;;;0.70;;
51485;SDS011;37565;51.352;6.412;2022-07-18T11:47:07;11.23;;;0.70;;
51485;SDS011;37565;51.352;6.412;2022-07-18T11:49:38;7.30;;;0.85;;
51485;SDS011;37565;51.352;6.412;2022-07-18T11:52:07;0.75;;;0.50;;
51485;SDS011;37565;51.352;6.412;2022-07-18T11:54:35;1.38;;;0.60;;
51485;SDS011;37565;51.352;6.412;2022-07-18T11:57:03;0.65;;;0.65;;
51485;SDS011;37565;51.352;6.412;2022-07-18T11:59:35;1.85;;;0.60;;
51485;SDS011;37565;51.352;6.412;2022-07-18T12:02:04;0.90;;;0.60;;
51485;SDS011;37565;51.352;6.412;2022-07-18T12:04:33;1.38;;;0.50;;
51485;SDS011;37565;51.352;6.412;2022-07-18T12:07:15;4.30;;;0.60;;
51485;SDS011;37565;51.352;6.412;2022-07-18T12:09:45;3.42;;;0.43;;
51485;SDS011;37565;51.352;6.412;2022-07-18T12:12:14;1.48;;;0.50;;
51485;SDS011;37565;51.352;6.412;2022-07-18T12:14:53;0.65;;;0.55;;
51485;SDS011;37565;51.352;6.412;2022-07-18T12:17:25;0.60;;;0.60;;
51485;SDS011;37565;51.352;6.412;2022-07-18T12:20:08;0.50;;;0.50;;
51485;SDS011;37565;51.352;6.412;2022-07-18T12:25:38;0.93;;;0.40;;
51485;SDS011;37565;51.352;6.412;2022-07-18T12:28:16;0.85;;;0.60;;
51485;SDS011;37565;51.352;6.412;2022-07-18T12:30:44;1.85;;;0.32;;
51485;SDS011;37565;51.352;6.412;2022-07-18T12:33:13;0.75;;;0.50;;
51485;SDS011;37565;51.352;6.412;2022-07-18T12:35:41;2.15;;;0.60;;
51485;SDS011;37565;51.352;6.412;2022-07-18T12:38:12;2.50;;;0.68;;
51485;SDS011;37565;51.352;6.412;2022-07-18T12:40:43;0.80;;;0.50;;
51485;SDS011;37565;51.352;6.412;2022-07-18T12:43:13;1.42;;;0.90;;
51485;SDS011;37565;51.352;6.412;2022-07-18T12:45:43;6.18;;;0.50;;
51485;SDS011;37565;51.352;6.412;2022-07-18T12:48:11;0.95;;;0.30;;
51485;SDS011;37565;51.352;6.412;2022-07-18T12:50:40;0.40;;;0.40;;
51485;SDS011;37565;51.352;6.412;2022-07-18T12:53:08;2.03;;;0.75;;
51485;SDS011;37565;51.352;6.412;2022-07-18T12:55:38;1.17;;;0.60;;
51485;SDS011;37565;51.352;6.412;2022-07-18T12:58:07;3.28;;;0.57;;
51485;SDS011;37565;51.352;6.412;2022-07-18T13:00:35;1.42;;;0.50;;
51485;SDS011;37565;51.352;6.412;2022-07-18T13:03:03;3.40;;;0.60;;
51485;SDS011;37565;51.352;6.412;2022-07-18T13:05:31;3.03;;;0.63;;
51485;SDS011;37565;51.352;6.412;2022-07-18T13:08:02;0.60;;;0.47;;
51485;SDS011;37565;51.352;6.412;2022-07-18T13:10:32;2.50;;;0.50;;
51485;SDS011;37565;51.352;6.412;2022-07-18T13:13:00;1.38;;;0.43;;
51485;SDS011;37565;51.352;6.412;2022-07-18T13:15:29;0.63;;;0.40;;
51485;SDS011;37565;51.352;6.412;2022-07-18T13:17:57;2.08;;;0.55;;
51485;SDS011;37565;51.352;6.412;2022-07-18T13:20:25;0.35;;;0.35;;
51485;SDS011;37565;51.352;6.412;2022-07-18T13:22:53;0.98;;;0.43;;
51485;SDS011;37565;51.352;6.412;2022-07-18T13:25:22;0.80;;;0.38;;
51485;SDS011;37565;51.352;6.412;2022-07-18T13:27:51;6.10;;;0.50;;
51485;SDS011;37565;51.352;6.412;2022-07-18T13:30:19;0.32;;;0.25;;
51485;SDS011;37565;51.352;6.412;2022-07-18T13:32:47;0.98;;;0.35;;
51485;SDS011;37565;51.352;6.412;2022-07-18T13:35:16;2.88;;;0.60;;
51485;SDS011;37565;51.352;6.412;2022-07-18T13:37:44;2.08;;;0.35;;
51485;SDS011;37565;51.352;6.412;2022-07-18T13:40:13;0.20;;;0.20;;
51485;SDS011;37565;51.352;6.412;2022-07-18T13:42:42;1.48;;;0.32;;
51485;SDS011;37565;51.352;6.412;2022-07-18T13:45:12;1.50;;;0.47;;
51485;SDS011;37565;51.352;6.412;2022-07-18T13:47:41;0.30;;;0.30;;
51485;SDS011;37565;51.352;6.412;2022-07-18T13:50:10;2.63;;;0.40;;
51485;SDS011;37565;51.352;6.412;2022-07-18T13:52:38;1.67;;;0.28;;
51485;SDS011;37565;51.352;6.412;2022-07-18T13:55:07;0.20;;;0.20;;
51485;SDS011;37565;51.352;6.412;2022-07-18T13:57:35;1.95;;;0.50;;
51485;SDS011;37565;51.352;6.412;2022-07-18T14:00:06;1.73;;;0.32;;
51485;SDS011;37565;51.352;6.412;2022-07-18T14:02:37;5.22;;;0.57;;
51485;SDS011;37565;51.352;6.412;2022-07-18T14:05:05;0.70;;;0.30;;
51485;SDS011;37565;51.352;6.412;2022-07-18T14:07:39;0.65;;;0.40;;
51485;SDS011;37565;51.352;6.412;2022-07-18T14:10:07;2.00;;;0.73;;
51485;SDS011;37565;51.352;6.412;2022-07-18T14:12:36;1.60;;;0.30;;
51485;SDS011;37565;51.352;6.412;2022-07-18T14:15:04;0.75;;;0.40;;
51485;SDS011;37565;51.352;6.412;2022-07-18T14:17:33;9.13;;;0.57;;
51485;SDS011;37565;51.352;6.412;2022-07-18T14:20:03;1.77;;;0.40;;
51485;SDS011;37565;51.352;6.412;2022-07-18T14:22:33;0.50;;;0.32;;
51485;SDS011;37565;51.352;6.412;2022-07-18T14:25:02;0.50;;;0.43;;
51485;SDS011;37565;51.352;6.412;2022-07-18T14:27:30;0.70;;;0.52;;
51485;SDS011;37565;51.352;6.412;2022-07-18T14:29:58;5.07;;;0.40;;
51485;SDS011;37565;51.352;6.412;2022-07-18T14:32:26;1.40;;;0.47;;
51485;SDS011;37565;51.352;6.412;2022-07-18T14:34:54;1.88;;;0.25;;
51485;SDS011;37565;51.352;6.412;2022-07-18T14:37:24;0.75;;;0.50;;
51485;SDS011;37565;51.352;6.412;2022-07-18T14:39:52;3.30;;;0.40;;
51485;SDS011;37565;51.352;6.412;2022-07-18T14:42:22;3.50;;;0.75;;
51485;SDS011;37565;51.352;6.412;2022-07-18T14:44:50;3.75;;;0.50;;
51485;SDS011;37565;51.352;6.412;2022-07-18T14:47:19;2.95;;;0.85;;
51485;SDS011;37565;51.352;6.412;2022-07-18T14:49:47;3.60;;;0.60;;
51485;SDS011;37565;51.352;6.412;2022-07-18T14:52:16;2.10;;;0.55;;
51485;SDS011;37565;51.352;6.412;2022-07-18T14:54:45;6.00;;;0.70;;
51485;SDS011;37565;51.352;6.412;2022-07-18T14:57:13;11.18;;;1.30;;
51485;SDS011;37565;51.352;6.412;2022-07-18T14:59:43;5.45;;;0.80;;
51485;SDS011;37565;51.352;6.412;2022-07-18T15:02:11;3.20;;;0.65;;
51485;SDS011;37565;51.352;6.412;2022-07-18T15:04:41;3.97;;;0.80;;
51485;SDS011;37565;51.352;6.412;2022-07-18T15:07:10;8.77;;;0.98;;
51485;SDS011;37565;51.352;6.412;2022-07-18T15:09:38;3.55;;;0.82;;
51485;SDS011;37565;51.352;6.412;2022-07-18T15:12:07;6.00;;;1.45;;
51485;SDS011;37565;51.352;6.412;2022-07-18T15:14:35;8.23;;;0.85;;
51485;SDS011;37565;51.352;6.412;2022-07-18T15:17:03;2.63;;;0.90;;